sensor_id;sensor_type;location;lat;lon;timestamp;P1;durP1;ratioP1;P2;durP2;ratioP2
13897;SDS011;7019;50.766;4.474;2023-04-25T00:01:58;16.53;;;4.17;;
13897;SDS011;7019;50.766;4.474;2023-04-25T00:04:25;12.77;;;4.00;;
13897;SDS011;7019;50.766;4.474;2023-04-25T00:06:52;13.60;;;4.43;;
13897;SDS011;7019;50.766;4.474;2023-04-25T00:09:20;11.93;;;4.40;;
13897;SDS011;7019;50.766;4.474;2023-04-25T00:11:47;13.87;;;4.10;;
13897;SDS011;7019;50.766;4.474;2023-04-25T00:14:14;10.83;;;4.13;;
13897;SDS011;7019;50.766;4.474;2023-04-25T00:16:41;20.07;;;5.10;;
13897;SDS011;7019;50.766;4.474;2023-04-25T00:19:10;16.57;;;4.63;;
13897;SDS011;7019;50.766;4.474;2023-04-25T00:21:37;9.70;;;3.93;;
13897;SDS011;7019;50.766;4.474;2023-04-25T00:24:05;15.07;;;5.13;;
13897;SDS011;7019;50.766;4.474;2023-04-25T00:26:33;9.33;;;3.80;;
13897;SDS011;7019;50.766;4.474;2023-04-25T00:29:01;10.83;;;4.57;;
13897;SDS011;7019;50.766;4.474;2023-04-25T00:31:28;11.13;;;5.00;;
13897;SDS011;7019;50.766;4.474;2023-04-25T00:33:55;13.47;;;4.57;;
13897;SDS011;7019;50.766;4.474;2023-04-25T00:36:24;21.53;;;4.63;;
13897;SDS011;7019;50.766;4.474;2023-04-25T00:38:51;14.83;;;4.03;;
13897;SDS011;7019;50.766;4.474;2023-04-25T00:41:20;15.27;;;4.23;;
13897;SDS011;7019;50.766;4.474;2023-04-25T00:43:47;11.23;;;4.37;;
13897;SDS011;7019;50.766;4.474;2023-04-25T00:46:15;11.40;;;3.97;;
13897;SDS011;7019;50.766;4.474;2023-04-25T00:48:42;18.07;;;4.67;;
13897;SDS011;7019;50.766;4.474;2023-04-25T00:51:09;12.80;;;5.17;;
13897;SDS011;7019;50.766;4.474;2023-04-25T00:53:41;16.57;;;4.30;;
13897;SDS011;7019;50.766;4.474;2023-04-25T00:56:09;9.97;;;3.93;;
13897;SDS011;7019;50.766;4.474;2023-04-25T00:58:36;13.20;;;3.93;;
13897;SDS011;7019;50.766;4.474;2023-04-25T01:01:04;14.23;;;4.70;;
13897;SDS011;7019;50.766;4.474;2023-04-25T01:03:33;11.73;;;4.63;;
13897;SDS011;7019;50.766;4.474;2023-04-25T01:06:05;11.20;;;4.33;;
13897;SDS011;7019;50.766;4.474;2023-04-25T01:08:33;9.20;;;4.93;;
13897;SDS011;7019;50.766;4.474;2023-04-25T01:11:02;13.10;;;3.90;;
13897;SDS011;7019;50.766;4.474;2023-04-25T01:13:29;11.03;;;4.77;;
13897;SDS011;7019;50.766;4.474;2023-04-25T01:15:57;10.83;;;5.10;;
13897;SDS011;7019;50.766;4.474;2023-04-25T01:18:24;14.23;;;5.07;;
13897;SDS011;7019;50.766;4.474;2023-04-25T01:20:51;16.33;;;4.87;;
13897;SDS011;7019;50.766;4.474;2023-04-25T01:23:21;14.87;;;4.77;;
13897;SDS011;7019;50.766;4.474;2023-04-25T01:25:48;15.83;;;4.77;;
13897;SDS011;7019;50.766;4.474;2023-04-25T01:28:16;16.27;;;5.17;;
13897;SDS011;7019;50.766;4.474;2023-04-25T01:30:43;15.17;;;5.07;;
13897;SDS011;7019;50.766;4.474;2023-04-25T01:33:11;19.77;;;5.40;;
13897;SDS011;7019;50.766;4.474;2023-04-25T01:35:41;12.87;;;4.50;;
13897;SDS011;7019;50.766;4.474;2023-04-25T01:38:08;13.40;;;5.00;;
13897;SDS011;7019;50.766;4.474;2023-04-25T01:40:38;15.40;;;4.57;;
13897;SDS011;7019;50.766;4.474;2023-04-25T01:43:06;17.57;;;5.53;;
13897;SDS011;7019;50.766;4.474;2023-04-25T01:45:36;19.50;;;5.10;;
13897;SDS011;7019;50.766;4.474;2023-04-25T01:48:05;18.23;;;4.73;;
13897;SDS011;7019;50.766;4.474;2023-04-25T01:50:32;14.87;;;4.50;;
13897;SDS011;7019;50.766;4.474;2023-04-25T01:52:59;17.87;;;4.97;;
13897;SDS011;7019;50.766;4.474;2023-04-25T01:55:27;12.53;;;5.10;;
13897;SDS011;7019;50.766;4.474;2023-04-25T01:57:56;10.90;;;5.63;;
13897;SDS011;7019;50.766;4.474;2023-04-25T02:00:24;17.03;;;4.60;;
13897;SDS011;7019;50.766;4.474;2023-04-25T02:02:51;14.40;;;5.37;;
13897;SDS011;7019;50.766;4.474;2023-04-25T02:05:18;16.97;;;5.23;;
13897;SDS011;7019;50.766;4.474;2023-04-25T02:07:46;16.63;;;4.90;;
13897;SDS011;7019;50.766;4.474;2023-04-25T02:10:14;12.23;;;4.50;;
13897;SDS011;7019;50.766;4.474;2023-04-25T02:12:41;21.00;;;5.73;;
13897;SDS011;7019;50.766;4.474;2023-04-25T02:15:10;23.00;;;6.07;;
13897;SDS011;7019;50.766;4.474;2023-04-25T02:17:37;19.93;;;5.17;;
13897;SDS011;7019;50.766;4.474;2023-04-25T02:20:04;17.93;;;4.47;;
13897;SDS011;7019;50.766;4.474;2023-04-25T02:22:32;20.60;;;5.47;;
13897;SDS011;7019;50.766;4.474;2023-04-25T02:25:00;18.47;;;5.43;;
13897;SDS011;7019;50.766;4.474;2023-04-25T02:27:29;21.33;;;5.03;;
13897;SDS011;7019;50.766;4.474;2023-04-25T02:29:56;20.27;;;6.10;;
13897;SDS011;7019;50.766;4.474;2023-04-25T02:32:25;15.53;;;5.80;;
13897;SDS011;7019;50.766;4.474;2023-04-25T02:34:53;20.13;;;5.73;;
13897;SDS011;7019;50.766;4.474;2023-04-25T02:37:20;15.60;;;5.57;;
13897;SDS011;7019;50.766;4.474;2023-04-25T02:39:50;16.40;;;5.50;;
13897;SDS011;7019;50.766;4.474;2023-04-25T02:42:17;20.70;;;5.90;;
13897;SDS011;7019;50.766;4.474;2023-04-25T02:44:44;21.63;;;6.40;;
13897;SDS011;7019;50.766;4.474;2023-04-25T02:47:11;19.23;;;5.77;;
13897;SDS011;7019;50.766;4.474;2023-04-25T02:49:40;11.83;;;5.20;;
13897;SDS011;7019;50.766;4.474;2023-04-25T02:52:07;15.33;;;5.17;;
13897;SDS011;7019;50.766;4.474;2023-04-25T02:54:34;9.83;;;4.27;;
13897;SDS011;7019;50.766;4.474;2023-04-25T02:57:02;16.57;;;5.53;;
13897;SDS011;7019;50.766;4.474;2023-04-25T02:59:29;15.33;;;5.67;;
13897;SDS011;7019;50.766;4.474;2023-04-25T03:01:56;16.10;;;5.90;;
13897;SDS011;7019;50.766;4.474;2023-04-25T03:04:23;16.90;;;5.37;;
13897;SDS011;7019;50.766;4.474;2023-04-25T03:06:51;17.17;;;4.90;;
13897;SDS011;7019;50.766;4.474;2023-04-25T03:09:19;15.40;;;4.77;;
13897;SDS011;7019;50.766;4.474;2023-04-25T03:11:46;18.73;;;5.77;;
13897;SDS011;7019;50.766;4.474;2023-04-25T03:14:13;11.50;;;5.03;;
13897;SDS011;7019;50.766;4.474;2023-04-25T03:16:40;10.70;;;4.43;;
13897;SDS011;7019;50.766;4.474;2023-04-25T03:19:07;11.47;;;4.40;;
13897;SDS011;7019;50.766;4.474;2023-04-25T03:21:35;13.20;;;4.30;;
13897;SDS011;7019;50.766;4.474;2023-04-25T03:24:04;9.83;;;5.20;;
13897;SDS011;7019;50.766;4.474;2023-04-25T03:26:31;15.83;;;5.93;;
13897;SDS011;7019;50.766;4.474;2023-04-25T03:28:58;17.50;;;5.07;;
13897;SDS011;7019;50.766;4.474;2023-04-25T03:31:25;19.27;;;5.60;;
13897;SDS011;7019;50.766;4.474;2023-04-25T03:33:52;20.10;;;5.00;;
13897;SDS011;7019;50.766;4.474;2023-04-25T03:36:19;14.23;;;5.50;;
13897;SDS011;7019;50.766;4.474;2023-04-25T03:38:46;14.83;;;5.53;;
13897;SDS011;7019;50.766;4.474;2023-04-25T03:41:15;15.50;;;4.80;;
13897;SDS011;7019;50.766;4.474;2023-04-25T03:43:42;16.43;;;5.27;;
13897;SDS011;7019;50.766;4.474;2023-04-25T03:46:09;13.13;;;5.67;;
13897;SDS011;7019;50.766;4.474;2023-04-25T03:48:36;17.87;;;6.27;;
13897;SDS011;7019;50.766;4.474;2023-04-25T03:51:03;19.73;;;6.53;;
13897;SDS011;7019;50.766;4.474;2023-04-25T03:53:30;10.83;;;5.40;;
13897;SDS011;7019;50.766;4.474;2023-04-25T03:55:57;15.33;;;5.97;;
13897;SDS011;7019;50.766;4.474;2023-04-25T03:58:25;12.07;;;5.97;;
13897;SDS011;7019;50.766;4.474;2023-04-25T04:00:52;22.27;;;6.93;;
13897;SDS011;7019;50.766;4.474;2023-04-25T04:03:20;20.27;;;6.10;;
13897;SDS011;7019;50.766;4.474;2023-04-25T04:05:47;23.47;;;7.17;;
13897;SDS011;7019;50.766;4.474;2023-04-25T04:08:14;18.00;;;6.43;;
13897;SDS011;7019;50.766;4.474;2023-04-25T04:10:41;18.33;;;6.30;;
13897;SDS011;7019;50.766;4.474;2023-04-25T04:13:08;16.83;;;5.93;;
13897;SDS011;7019;50.766;4.474;2023-04-25T04:15:36;20.30;;;6.30;;
13897;SDS011;7019;50.766;4.474;2023-04-25T04:18:04;18.27;;;6.43;;
13897;SDS011;7019;50.766;4.474;2023-04-25T04:20:31;15.83;;;6.53;;
13897;SDS011;7019;50.766;4.474;2023-04-25T04:22:58;14.43;;;6.47;;
13897;SDS011;7019;50.766;4.474;2023-04-25T04:25:26;17.33;;;5.57;;
13897;SDS011;7019;50.766;4.474;2023-04-25T04:27:53;20.97;;;6.43;;
13897;SDS011;7019;50.766;4.474;2023-04-25T04:30:21;23.57;;;6.30;;
13897;SDS011;7019;50.766;4.474;2023-04-25T04:32:51;18.27;;;5.40;;
13897;SDS011;7019;50.766;4.474;2023-04-25T04:35:19;18.77;;;5.60;;
13897;SDS011;7019;50.766;4.474;2023-04-25T04:37:46;16.47;;;6.00;;
13897;SDS011;7019;50.766;4.474;2023-04-25T04:40:13;12.20;;;5.47;;
13897;SDS011;7019;50.766;4.474;2023-04-25T04:42:41;15.73;;;5.77;;
13897;SDS011;7019;50.766;4.474;2023-04-25T04:45:10;14.87;;;5.87;;
13897;SDS011;7019;50.766;4.474;2023-04-25T04:47:38;18.53;;;5.23;;
13897;SDS011;7019;50.766;4.474;2023-04-25T04:50:07;19.23;;;5.73;;
13897;SDS011;7019;50.766;4.474;2023-04-25T04:52:35;13.57;;;5.37;;
13897;SDS011;7019;50.766;4.474;2023-04-25T04:55:03;14.33;;;5.77;;
13897;SDS011;7019;50.766;4.474;2023-04-25T04:57:31;12.77;;;5.17;;
13897;SDS011;7019;50.766;4.474;2023-04-25T04:59:59;22.93;;;5.53;;
13897;SDS011;7019;50.766;4.474;2023-04-25T05:02:26;15.57;;;5.97;;
13897;SDS011;7019;50.766;4.474;2023-04-25T05:04:53;13.20;;;5.00;;
13897;SDS011;7019;50.766;4.474;2023-04-25T05:07:21;14.00;;;4.90;;
13897;SDS011;7019;50.766;4.474;2023-04-25T05:09:48;16.00;;;5.17;;
13897;SDS011;7019;50.766;4.474;2023-04-25T05:12:16;16.33;;;5.60;;
13897;SDS011;7019;50.766;4.474;2023-04-25T05:14:43;14.10;;;5.43;;
13897;SDS011;7019;50.766;4.474;2023-04-25T05:17:10;16.43;;;5.87;;
13897;SDS011;7019;50.766;4.474;2023-04-25T05:19:38;10.80;;;4.77;;
13897;SDS011;7019;50.766;4.474;2023-04-25T05:22:05;16.90;;;5.50;;
13897;SDS011;7019;50.766;4.474;2023-04-25T05:24:34;9.90;;;4.73;;
13897;SDS011;7019;50.766;4.474;2023-04-25T05:27:01;16.80;;;5.87;;
13897;SDS011;7019;50.766;4.474;2023-04-25T05:29:28;21.07;;;5.90;;
13897;SDS011;7019;50.766;4.474;2023-04-25T05:31:55;15.57;;;5.73;;
13897;SDS011;7019;50.766;4.474;2023-04-25T05:34:23;16.63;;;5.57;;
13897;SDS011;7019;50.766;4.474;2023-04-25T05:36:50;12.10;;;5.90;;
13897;SDS011;7019;50.766;4.474;2023-04-25T05:39:17;14.93;;;5.77;;
13897;SDS011;7019;50.766;4.474;2023-04-25T05:41:45;18.70;;;6.13;;
13897;SDS011;7019;50.766;4.474;2023-04-25T05:44:12;16.03;;;6.80;;
13897;SDS011;7019;50.766;4.474;2023-04-25T05:46:41;20.40;;;6.00;;
13897;SDS011;7019;50.766;4.474;2023-04-25T05:49:08;18.57;;;6.00;;
13897;SDS011;7019;50.766;4.474;2023-04-25T05:51:35;19.37;;;5.33;;
13897;SDS011;7019;50.766;4.474;2023-04-25T05:54:02;15.13;;;4.70;;
13897;SDS011;7019;50.766;4.474;2023-04-25T05:56:29;16.60;;;5.40;;
13897;SDS011;7019;50.766;4.474;2023-04-25T05:58:58;15.87;;;5.30;;
13897;SDS011;7019;50.766;4.474;2023-04-25T06:01:25;10.13;;;5.10;;
13897;SDS011;7019;50.766;4.474;2023-04-25T06:03:52;12.97;;;4.73;;
13897;SDS011;7019;50.766;4.474;2023-04-25T06:06:19;19.03;;;4.93;;
13897;SDS011;7019;50.766;4.474;2023-04-25T06:08:46;13.37;;;5.30;;
13897;SDS011;7019;50.766;4.474;2023-04-25T06:11:13;12.23;;;4.60;;
13897;SDS011;7019;50.766;4.474;2023-04-25T06:13:40;14.63;;;5.10;;
13897;SDS011;7019;50.766;4.474;2023-04-25T06:16:08;13.07;;;4.63;;
13897;SDS011;7019;50.766;4.474;2023-04-25T06:18:35;15.37;;;4.67;;
13897;SDS011;7019;50.766;4.474;2023-04-25T06:21:02;15.10;;;5.00;;
13897;SDS011;7019;50.766;4.474;2023-04-25T06:23:30;12.47;;;4.63;;
13897;SDS011;7019;50.766;4.474;2023-04-25T06:25:57;16.73;;;5.20;;
13897;SDS011;7019;50.766;4.474;2023-04-25T06:28:24;11.20;;;5.03;;
13897;SDS011;7019;50.766;4.474;2023-04-25T06:30:51;14.47;;;4.67;;
13897;SDS011;7019;50.766;4.474;2023-04-25T06:33:20;14.40;;;4.60;;
13897;SDS011;7019;50.766;4.474;2023-04-25T06:35:47;15.03;;;4.23;;
13897;SDS011;7019;50.766;4.474;2023-04-25T06:38:15;15.07;;;4.67;;
13897;SDS011;7019;50.766;4.474;2023-04-25T06:40:42;12.47;;;4.73;;
13897;SDS011;7019;50.766;4.474;2023-04-25T06:43:09;12.27;;;4.63;;
13897;SDS011;7019;50.766;4.474;2023-04-25T06:45:36;14.17;;;5.83;;
13897;SDS011;7019;50.766;4.474;2023-04-25T06:48:03;12.13;;;4.27;;
13897;SDS011;7019;50.766;4.474;2023-04-25T06:50:32;20.10;;;5.17;;
13897;SDS011;7019;50.766;4.474;2023-04-25T06:53:00;13.97;;;4.63;;
13897;SDS011;7019;50.766;4.474;2023-04-25T06:55:27;14.13;;;4.83;;
13897;SDS011;7019;50.766;4.474;2023-04-25T06:57:55;14.83;;;4.80;;
13897;SDS011;7019;50.766;4.474;2023-04-25T07:00:22;11.50;;;4.37;;
13897;SDS011;7019;50.766;4.474;2023-04-25T07:02:50;10.90;;;4.57;;
13897;SDS011;7019;50.766;4.474;2023-04-25T07:05:17;12.30;;;4.50;;
13897;SDS011;7019;50.766;4.474;2023-04-25T07:07:45;12.50;;;4.70;;
13897;SDS011;7019;50.766;4.474;2023-04-25T07:10:12;16.40;;;5.03;;
13897;SDS011;7019;50.766;4.474;2023-04-25T07:12:40;12.57;;;4.90;;
13897;SDS011;7019;50.766;4.474;2023-04-25T07:15:07;19.13;;;4.57;;
13897;SDS011;7019;50.766;4.474;2023-04-25T07:17:36;15.83;;;4.80;;
13897;SDS011;7019;50.766;4.474;2023-04-25T07:20:04;20.80;;;6.33;;
13897;SDS011;7019;50.766;4.474;2023-04-25T07:22:32;13.00;;;5.60;;
13897;SDS011;7019;50.766;4.474;2023-04-25T07:25:01;19.03;;;5.93;;
13897;SDS011;7019;50.766;4.474;2023-04-25T07:27:29;15.27;;;5.60;;
13897;SDS011;7019;50.766;4.474;2023-04-25T07:29:56;16.00;;;5.77;;
13897;SDS011;7019;50.766;4.474;2023-04-25T07:32:23;15.70;;;5.80;;
13897;SDS011;7019;50.766;4.474;2023-04-25T07:34:51;13.03;;;5.40;;
13897;SDS011;7019;50.766;4.474;2023-04-25T07:37:18;15.97;;;5.10;;
13897;SDS011;7019;50.766;4.474;2023-04-25T07:39:46;11.37;;;4.87;;
13897;SDS011;7019;50.766;4.474;2023-04-25T07:42:14;8.97;;;4.63;;
13897;SDS011;7019;50.766;4.474;2023-04-25T07:44:41;15.50;;;5.33;;
13897;SDS011;7019;50.766;4.474;2023-04-25T07:47:09;16.00;;;4.70;;
13897;SDS011;7019;50.766;4.474;2023-04-25T07:49:36;11.50;;;4.53;;
13897;SDS011;7019;50.766;4.474;2023-04-25T07:52:04;17.27;;;4.43;;
13897;SDS011;7019;50.766;4.474;2023-04-25T07:54:32;12.33;;;4.43;;
13897;SDS011;7019;50.766;4.474;2023-04-25T07:56:59;11.53;;;3.77;;
13897;SDS011;7019;50.766;4.474;2023-04-25T07:59:28;14.97;;;4.27;;
13897;SDS011;7019;50.766;4.474;2023-04-25T08:01:55;15.07;;;4.13;;
13897;SDS011;7019;50.766;4.474;2023-04-25T08:04:23;13.43;;;4.10;;
13897;SDS011;7019;50.766;4.474;2023-04-25T08:06:50;11.40;;;3.30;;
13897;SDS011;7019;50.766;4.474;2023-04-25T08:09:18;10.37;;;3.73;;
13897;SDS011;7019;50.766;4.474;2023-04-25T08:11:46;8.30;;;2.77;;
13897;SDS011;7019;50.766;4.474;2023-04-25T08:14:13;13.30;;;2.90;;
13897;SDS011;7019;50.766;4.474;2023-04-25T08:16:41;9.40;;;2.53;;
13897;SDS011;7019;50.766;4.474;2023-04-25T08:19:08;10.53;;;2.80;;
13897;SDS011;7019;50.766;4.474;2023-04-25T08:21:36;10.63;;;3.33;;
13897;SDS011;7019;50.766;4.474;2023-04-25T08:24:03;6.97;;;2.30;;
13897;SDS011;7019;50.766;4.474;2023-04-25T08:26:30;9.50;;;2.77;;
13897;SDS011;7019;50.766;4.474;2023-04-25T08:28:58;10.23;;;3.03;;
13897;SDS011;7019;50.766;4.474;2023-04-25T08:31:25;9.17;;;3.27;;
13897;SDS011;7019;50.766;4.474;2023-04-25T08:33:53;10.13;;;2.97;;
13897;SDS011;7019;50.766;4.474;2023-04-25T08:36:20;10.33;;;3.07;;
13897;SDS011;7019;50.766;4.474;2023-04-25T08:38:47;7.13;;;2.47;;
13897;SDS011;7019;50.766;4.474;2023-04-25T08:41:14;9.87;;;2.97;;
13897;SDS011;7019;50.766;4.474;2023-04-25T08:43:44;6.50;;;2.37;;
13897;SDS011;7019;50.766;4.474;2023-04-25T08:46:12;9.47;;;2.43;;
13897;SDS011;7019;50.766;4.474;2023-04-25T08:48:43;8.07;;;3.10;;
13897;SDS011;7019;50.766;4.474;2023-04-25T08:51:15;7.37;;;2.53;;
13897;SDS011;7019;50.766;4.474;2023-04-25T08:53:48;8.33;;;2.87;;
13897;SDS011;7019;50.766;4.474;2023-04-25T08:56:17;11.37;;;3.33;;
13897;SDS011;7019;50.766;4.474;2023-04-25T08:58:47;8.33;;;2.90;;
13897;SDS011;7019;50.766;4.474;2023-04-25T09:01:15;12.90;;;3.23;;
13897;SDS011;7019;50.766;4.474;2023-04-25T09:03:42;12.10;;;3.37;;
13897;SDS011;7019;50.766;4.474;2023-04-25T09:06:13;9.53;;;3.10;;
13897;SDS011;7019;50.766;4.474;2023-04-25T09:08:41;11.27;;;3.30;;
13897;SDS011;7019;50.766;4.474;2023-04-25T09:11:08;10.23;;;3.00;;
13897;SDS011;7019;50.766;4.474;2023-04-25T09:13:35;11.40;;;3.87;;
13897;SDS011;7019;50.766;4.474;2023-04-25T09:16:02;10.30;;;3.20;;
13897;SDS011;7019;50.766;4.474;2023-04-25T09:18:30;10.67;;;3.70;;
13897;SDS011;7019;50.766;4.474;2023-04-25T09:20:58;8.47;;;3.20;;
13897;SDS011;7019;50.766;4.474;2023-04-25T09:23:39;12.07;;;3.13;;
13897;SDS011;7019;50.766;4.474;2023-04-25T09:26:08;7.70;;;3.07;;
13897;SDS011;7019;50.766;4.474;2023-04-25T09:28:35;9.30;;;2.67;;
13897;SDS011;7019;50.766;4.474;2023-04-25T09:31:03;8.10;;;2.40;;
13897;SDS011;7019;50.766;4.474;2023-04-25T09:33:30;5.73;;;2.13;;
13897;SDS011;7019;50.766;4.474;2023-04-25T09:36:03;12.23;;;2.73;;
13897;SDS011;7019;50.766;4.474;2023-04-25T09:38:32;5.93;;;2.20;;
13897;SDS011;7019;50.766;4.474;2023-04-25T09:41:07;7.13;;;2.33;;
13897;SDS011;7019;50.766;4.474;2023-04-25T09:43:35;7.20;;;2.53;;
13897;SDS011;7019;50.766;4.474;2023-04-25T09:46:03;8.50;;;2.80;;
13897;SDS011;7019;50.766;4.474;2023-04-25T09:48:34;9.93;;;2.70;;
13897;SDS011;7019;50.766;4.474;2023-04-25T09:51:05;14.70;;;2.47;;
13897;SDS011;7019;50.766;4.474;2023-04-25T09:53:33;5.13;;;2.07;;
13897;SDS011;7019;50.766;4.474;2023-04-25T09:56:04;8.43;;;1.83;;
13897;SDS011;7019;50.766;4.474;2023-04-25T09:58:33;14.60;;;2.23;;
13897;SDS011;7019;50.766;4.474;2023-04-25T10:01:01;7.73;;;2.03;;
13897;SDS011;7019;50.766;4.474;2023-04-25T10:03:30;10.30;;;2.40;;
13897;SDS011;7019;50.766;4.474;2023-04-25T10:05:59;11.70;;;2.10;;
13897;SDS011;7019;50.766;4.474;2023-04-25T10:08:29;8.50;;;2.17;;
13897;SDS011;7019;50.766;4.474;2023-04-25T10:11:00;9.13;;;2.97;;
13897;SDS011;7019;50.766;4.474;2023-04-25T10:13:29;10.00;;;2.17;;
13897;SDS011;7019;50.766;4.474;2023-04-25T10:15:57;9.03;;;1.90;;
13897;SDS011;7019;50.766;4.474;2023-04-25T10:18:25;7.53;;;1.60;;
13897;SDS011;7019;50.766;4.474;2023-04-25T10:20:53;11.47;;;2.47;;
13897;SDS011;7019;50.766;4.474;2023-04-25T10:23:24;6.67;;;2.37;;
13897;SDS011;7019;50.766;4.474;2023-04-25T10:25:55;5.03;;;2.17;;
13897;SDS011;7019;50.766;4.474;2023-04-25T10:28:23;7.97;;;2.10;;
13897;SDS011;7019;50.766;4.474;2023-04-25T10:31:01;7.27;;;2.40;;
13897;SDS011;7019;50.766;4.474;2023-04-25T10:33:29;10.80;;;2.00;;
13897;SDS011;7019;50.766;4.474;2023-04-25T10:36:10;7.47;;;2.03;;
13897;SDS011;7019;50.766;4.474;2023-04-25T10:38:38;4.97;;;1.70;;
13897;SDS011;7019;50.766;4.474;2023-04-25T10:41:06;6.33;;;1.87;;
13897;SDS011;7019;50.766;4.474;2023-04-25T10:43:35;5.07;;;1.90;;
13897;SDS011;7019;50.766;4.474;2023-04-25T10:46:13;6.87;;;1.80;;
13897;SDS011;7019;50.766;4.474;2023-04-25T10:48:49;6.70;;;1.50;;
13897;SDS011;7019;50.766;4.474;2023-04-25T10:51:18;7.33;;;1.53;;
13897;SDS011;7019;50.766;4.474;2023-04-25T10:53:46;7.77;;;1.87;;
13897;SDS011;7019;50.766;4.474;2023-04-25T10:56:23;7.63;;;1.97;;
13897;SDS011;7019;50.766;4.474;2023-04-25T10:58:53;6.50;;;1.70;;
13897;SDS011;7019;50.766;4.474;2023-04-25T11:01:36;7.13;;;1.60;;
13897;SDS011;7019;50.766;4.474;2023-04-25T11:04:05;8.20;;;1.83;;
13897;SDS011;7019;50.766;4.474;2023-04-25T11:06:36;4.10;;;1.80;;
13897;SDS011;7019;50.766;4.474;2023-04-25T11:09:13;6.07;;;1.57;;
13897;SDS011;7019;50.766;4.474;2023-04-25T11:11:40;4.30;;;1.50;;
13897;SDS011;7019;50.766;4.474;2023-04-25T11:14:07;5.97;;;1.50;;
13897;SDS011;7019;50.766;4.474;2023-04-25T11:16:36;3.70;;;1.40;;
13897;SDS011;7019;50.766;4.474;2023-04-25T11:19:03;4.23;;;1.13;;
13897;SDS011;7019;50.766;4.474;2023-04-25T11:21:30;5.80;;;1.10;;
13897;SDS011;7019;50.766;4.474;2023-04-25T11:23:58;6.93;;;1.30;;
13897;SDS011;7019;50.766;4.474;2023-04-25T11:26:27;6.53;;;1.60;;
13897;SDS011;7019;50.766;4.474;2023-04-25T11:28:56;3.30;;;1.50;;
13897;SDS011;7019;50.766;4.474;2023-04-25T11:31:25;2.00;;;1.00;;
13897;SDS011;7019;50.766;4.474;2023-04-25T11:33:54;5.50;;;1.50;;
13897;SDS011;7019;50.766;4.474;2023-04-25T11:36:23;4.87;;;1.60;;
13897;SDS011;7019;50.766;4.474;2023-04-25T11:38:52;6.20;;;1.70;;
13897;SDS011;7019;50.766;4.474;2023-04-25T11:41:19;7.67;;;1.67;;
13897;SDS011;7019;50.766;4.474;2023-04-25T11:43:47;7.73;;;2.23;;
13897;SDS011;7019;50.766;4.474;2023-04-25T11:46:16;7.10;;;2.03;;
13897;SDS011;7019;50.766;4.474;2023-04-25T11:48:45;7.70;;;1.30;;
13897;SDS011;7019;50.766;4.474;2023-04-25T11:51:14;6.00;;;1.57;;
13897;SDS011;7019;50.766;4.474;2023-04-25T11:53:41;3.50;;;1.53;;
13897;SDS011;7019;50.766;4.474;2023-04-25T11:56:10;7.77;;;2.10;;
13897;SDS011;7019;50.766;4.474;2023-04-25T11:58:53;5.97;;;1.70;;
13897;SDS011;7019;50.766;4.474;2023-04-25T12:01:25;5.43;;;1.27;;
13897;SDS011;7019;50.766;4.474;2023-04-25T12:03:53;5.90;;;1.77;;
13897;SDS011;7019;50.766;4.474;2023-04-25T12:06:23;5.47;;;1.37;;
13897;SDS011;7019;50.766;4.474;2023-04-25T12:09:03;5.43;;;1.47;;
13897;SDS011;7019;50.766;4.474;2023-04-25T12:11:30;6.57;;;1.60;;
13897;SDS011;7019;50.766;4.474;2023-04-25T12:14:01;5.90;;;1.37;;
13897;SDS011;7019;50.766;4.474;2023-04-25T12:16:30;6.33;;;1.20;;
13897;SDS011;7019;50.766;4.474;2023-04-25T12:19:06;6.27;;;1.10;;
13897;SDS011;7019;50.766;4.474;2023-04-25T12:21:35;3.27;;;1.37;;
13897;SDS011;7019;50.766;4.474;2023-04-25T12:24:14;3.47;;;1.20;;
13897;SDS011;7019;50.766;4.474;2023-04-25T12:26:46;5.67;;;0.90;;
13897;SDS011;7019;50.766;4.474;2023-04-25T12:29:15;3.83;;;1.37;;
13897;SDS011;7019;50.766;4.474;2023-04-25T12:31:43;3.20;;;1.23;;
13897;SDS011;7019;50.766;4.474;2023-04-25T12:34:11;6.17;;;1.37;;
13897;SDS011;7019;50.766;4.474;2023-04-25T12:36:40;3.50;;;1.20;;
13897;SDS011;7019;50.766;4.474;2023-04-25T12:39:07;5.00;;;1.37;;
13897;SDS011;7019;50.766;4.474;2023-04-25T12:41:35;3.97;;;1.57;;
13897;SDS011;7019;50.766;4.474;2023-04-25T12:44:02;3.07;;;0.90;;
13897;SDS011;7019;50.766;4.474;2023-04-25T12:46:30;3.50;;;0.77;;
13897;SDS011;7019;50.766;4.474;2023-04-25T12:48:57;2.47;;;0.90;;
13897;SDS011;7019;50.766;4.474;2023-04-25T12:51:24;5.30;;;1.40;;
13897;SDS011;7019;50.766;4.474;2023-04-25T12:53:54;3.87;;;1.00;;
13897;SDS011;7019;50.766;4.474;2023-04-25T12:56:21;4.13;;;1.00;;
13897;SDS011;7019;50.766;4.474;2023-04-25T12:58:48;3.10;;;0.80;;
13897;SDS011;7019;50.766;4.474;2023-04-25T13:01:17;2.73;;;1.07;;
13897;SDS011;7019;50.766;4.474;2023-04-25T13:03:44;5.60;;;0.80;;
13897;SDS011;7019;50.766;4.474;2023-04-25T13:06:11;6.87;;;0.90;;
13897;SDS011;7019;50.766;4.474;2023-04-25T13:08:38;2.93;;;0.97;;
13897;SDS011;7019;50.766;4.474;2023-04-25T13:11:07;4.00;;;1.50;;
13897;SDS011;7019;50.766;4.474;2023-04-25T13:13:35;2.70;;;0.80;;
13897;SDS011;7019;50.766;4.474;2023-04-25T13:16:02;4.30;;;1.10;;
13897;SDS011;7019;50.766;4.474;2023-04-25T13:18:31;2.77;;;0.70;;
13897;SDS011;7019;50.766;4.474;2023-04-25T13:20:58;3.20;;;0.90;;
13897;SDS011;7019;50.766;4.474;2023-04-25T13:23:26;2.77;;;0.90;;
13897;SDS011;7019;50.766;4.474;2023-04-25T13:25:54;4.37;;;1.23;;
13897;SDS011;7019;50.766;4.474;2023-04-25T13:28:24;2.33;;;0.83;;
13897;SDS011;7019;50.766;4.474;2023-04-25T13:30:51;2.97;;;1.00;;
13897;SDS011;7019;50.766;4.474;2023-04-25T13:33:19;9.93;;;1.70;;
13897;SDS011;7019;50.766;4.474;2023-04-25T13:35:46;5.90;;;1.50;;
13897;SDS011;7019;50.766;4.474;2023-04-25T13:38:19;5.43;;;1.10;;
13897;SDS011;7019;50.766;4.474;2023-04-25T13:40:47;5.00;;;1.20;;
13897;SDS011;7019;50.766;4.474;2023-04-25T13:43:15;5.37;;;1.23;;
13897;SDS011;7019;50.766;4.474;2023-04-25T13:45:43;5.03;;;1.00;;
13897;SDS011;7019;50.766;4.474;2023-04-25T13:48:10;15.03;;;2.37;;
13897;SDS011;7019;50.766;4.474;2023-04-25T13:50:38;3.50;;;1.20;;
13897;SDS011;7019;50.766;4.474;2023-04-25T13:53:05;6.97;;;1.20;;
13897;SDS011;7019;50.766;4.474;2023-04-25T13:55:33;5.40;;;1.37;;
13897;SDS011;7019;50.766;4.474;2023-04-25T13:58:01;9.00;;;1.70;;
13897;SDS011;7019;50.766;4.474;2023-04-25T14:00:32;4.90;;;2.03;;
13897;SDS011;7019;50.766;4.474;2023-04-25T14:03:04;4.90;;;1.30;;
13897;SDS011;7019;50.766;4.474;2023-04-25T14:05:32;3.03;;;1.20;;
13897;SDS011;7019;50.766;4.474;2023-04-25T14:08:03;2.67;;;1.00;;
13897;SDS011;7019;50.766;4.474;2023-04-25T14:10:32;6.33;;;1.40;;
13897;SDS011;7019;50.766;4.474;2023-04-25T14:12:59;6.60;;;1.30;;
13897;SDS011;7019;50.766;4.474;2023-04-25T14:15:28;3.43;;;0.83;;
13897;SDS011;7019;50.766;4.474;2023-04-25T14:17:56;3.27;;;1.00;;
13897;SDS011;7019;50.766;4.474;2023-04-25T14:20:24;5.40;;;1.30;;
13897;SDS011;7019;50.766;4.474;2023-04-25T14:22:51;5.77;;;1.20;;
13897;SDS011;7019;50.766;4.474;2023-04-25T14:25:21;5.23;;;1.67;;
13897;SDS011;7019;50.766;4.474;2023-04-25T14:27:51;4.43;;;1.17;;
13897;SDS011;7019;50.766;4.474;2023-04-25T14:30:18;4.37;;;1.10;;
13897;SDS011;7019;50.766;4.474;2023-04-25T14:32:47;3.23;;;1.20;;
13897;SDS011;7019;50.766;4.474;2023-04-25T14:35:15;3.70;;;1.10;;
13897;SDS011;7019;50.766;4.474;2023-04-25T14:37:43;4.50;;;1.43;;
13897;SDS011;7019;50.766;4.474;2023-04-25T14:40:10;5.07;;;0.90;;
13897;SDS011;7019;50.766;4.474;2023-04-25T14:42:40;5.57;;;1.20;;
13897;SDS011;7019;50.766;4.474;2023-04-25T14:45:07;5.13;;;0.93;;
13897;SDS011;7019;50.766;4.474;2023-04-25T14:47:35;5.37;;;1.13;;
13897;SDS011;7019;50.766;4.474;2023-04-25T14:50:03;2.93;;;1.20;;
13897;SDS011;7019;50.766;4.474;2023-04-25T14:52:31;3.57;;;1.00;;
13897;SDS011;7019;50.766;4.474;2023-04-25T14:55:00;6.70;;;0.90;;
13897;SDS011;7019;50.766;4.474;2023-04-25T14:57:30;3.37;;;1.03;;
13897;SDS011;7019;50.766;4.474;2023-04-25T14:59:57;3.43;;;1.30;;